Time;durP1;ratioP1;P1;durP2;ratioP2;P2;SDS_P1;SDS_P2;PMS_P1;PMS_P2;Temp;Humidity;BMP_temperature;BMP_pressure;BME280_temperature;BME280_humidity;BME280_pressure;Samples;Min_cycle;Max_cycle;Signal;HPM_P1;HPM_P2
2022/05/10 00:01:00;;;;;;;8.30;7.13;;;19.80;51.20;;;;;;5088109;28;20529;-84
2022/05/10 00:03:33;;;;;;;8.67;7.83;;;19.90;51.10;;;;;;5090013;28;20471;-85
2022/05/10 00:06:00;;;;;;;9.43;7.97;;;19.90;50.90;;;;;;5070205;28;20525;-86
2022/05/10 00:08:28;;;;;;;8.20;7.50;;;19.90;51.00;;;;;;5090585;28;20445;-86
2022/05/10 00:10:56;;;;;;;8.23;7.43;;;19.90;51.00;;;;;;5090807;28;20459;-86
2022/05/10 00:13:24;;;;;;;8.50;7.67;;;19.90;51.10;;;;;;5069588;28;20975;-87
2022/05/10 00:15:51;;;;;;;11.63;7.60;;;19.90;51.10;;;;;;5080269;28;20479;-86
2022/05/10 00:18:20;;;;;;;10.20;7.90;;;19.90;50.90;;;;;;5057305;28;20431;-87
2022/05/10 00:20:48;;;;;;;8.33;7.47;;;19.90;50.40;;;;;;5063768;28;20493;-85
2022/05/10 00:23:16;;;;;;;7.80;7.10;;;19.90;50.30;;;;;;5064093;28;20431;-85
2022/05/10 00:25:43;;;;;;;12.30;7.57;;;19.90;50.50;;;;;;5063263;28;20454;-85
2022/05/10 00:28:10;;;;;;;8.53;7.73;;;19.80;50.30;;;;;;5086966;28;20448;-85
2022/05/10 00:30:38;;;;;;;8.33;6.97;;;19.70;50.50;;;;;;5088296;28;20463;-86
2022/05/10 00:33:05;;;;;;;8.90;7.83;;;19.70;50.80;;;;;;5073380;28;20918;-87
2022/05/10 00:35:34;;;;;;;7.53;6.83;;;19.60;51.10;;;;;;5070099;28;20443;-85
2022/05/10 00:38:05;;;;;;;14.80;8.00;;;19.50;51.20;;;;;;5054833;28;20954;-86
2022/05/10 00:40:34;;;;;;;10.77;7.70;;;19.50;51.40;;;;;;5089267;28;20469;-86
2022/05/10 00:43:09;;;;;;;9.27;7.20;;;19.50;51.80;;;;;;5091214;28;20451;-85
2022/05/10 00:45:43;;;;;;;9.50;8.47;;;19.50;51.50;;;;;;5090376;28;20458;-85
2022/05/10 00:48:15;;;;;;;9.13;7.63;;;19.40;50.80;;;;;;5087898;28;20452;-86
2022/05/10 00:50:47;;;;;;;8.03;7.30;;;19.30;51.20;;;;;;5073842;28;20482;-86
2022/05/10 00:53:21;;;;;;;9.30;8.17;;;19.20;51.20;;;;;;5078983;28;20447;-86
2022/05/10 00:55:55;;;;;;;8.77;7.97;;;19.20;50.80;;;;;;5064661;28;20450;-85
2022/05/10 00:58:26;;;;;;;8.10;7.30;;;19.30;51.00;;;;;;5092584;28;20439;-85
2022/05/10 01:00:56;;;;;;;9.47;7.80;;;19.30;50.90;;;;;;5074566;28;20468;-86
2022/05/10 01:03:28;;;;;;;8.80;7.97;;;19.00;51.60;;;;;;5059873;28;20443;-85
2022/05/10 01:06:03;;;;;;;7.83;7.03;;;19.00;51.50;;;;;;5049227;28;20459;-86
2022/05/10 01:08:39;;;;;;;10.93;8.30;;;19.10;51.50;;;;;;5076278;28;20945;-86
2022/05/10 01:11:15;;;;;;;9.50;7.47;;;19.00;51.40;;;;;;5073528;28;20446;-84
2022/05/10 01:13:48;;;;;;;9.00;7.80;;;19.00;51.30;;;;;;5076986;28;20439;-85
2022/05/10 01:16:20;;;;;;;8.97;8.03;;;19.00;51.10;;;;;;5092150;28;20455;-87
2022/05/10 01:18:48;;;;;;;9.33;7.60;;;19.00;51.20;;;;;;5074276;28;20485;-86
2022/05/10 01:21:44;;;;;;;9.57;7.60;;;19.00;51.60;;;;;;5075320;28;20987;-86
2022/05/10 01:24:29;;;;;;;8.20;7.40;;;19.00;51.50;;;;;;5074000;28;20497;-85
2022/05/10 01:27:11;;;;;;;9.30;8.40;;;19.00;51.60;;;;;;5054583;28;20457;-86
2022/05/10 01:29:44;;;;;;;9.27;8.37;;;18.90;51.80;;;;;;5076840;28;20467;-85
2022/05/10 01:35:09;;;;;;;9.07;8.17;;;18.90;51.50;;;;;;5075799;28;20442;-86
2022/05/10 01:37:39;;;;;;;9.40;7.63;;;18.90;51.20;;;;;;5090577;28;20446;-85
2022/05/10 01:40:13;;;;;;;9.97;8.97;;;18.90;51.00;;;;;;5059110;28;21008;-85
2022/05/10 01:42:46;;;;;;;10.50;7.57;;;18.80;51.00;;;;;;5092967;28;20972;-85
2022/05/10 01:45:23;;;;;;;9.40;8.17;;;18.80;51.10;;;;;;5075337;28;20483;-87
2022/05/10 01:47:59;;;;;;;8.10;7.30;;;18.70;51.20;;;;;;5091493;28;20515;-86
2022/05/10 01:50:33;;;;;;;9.03;8.13;;;18.70;51.50;;;;;;5093831;28;20471;-85
2022/05/10 01:53:06;;;;;;;9.23;7.60;;;18.60;51.30;;;;;;5073929;28;20462;-85
2022/05/10 01:55:36;;;;;;;12.57;9.23;;;18.70;51.50;;;;;;5091626;28;20444;-85
2022/05/10 01:58:08;;;;;;;9.20;8.30;;;18.50;52.20;;;;;;5094214;28;20454;-85
2022/05/10 02:00:38;;;;;;;8.17;7.47;;;18.20;52.60;;;;;;5092438;28;20492;-85
2022/05/10 02:03:12;;;;;;;8.90;8.00;;;18.20;52.30;;;;;;5093140;28;20522;-85
2022/05/10 02:05:46;;;;;;;9.27;7.90;;;18.30;52.30;;;;;;5092054;28;20532;-85
2022/05/10 02:08:23;;;;;;;10.13;8.13;;;18.40;51.90;;;;;;5057104;28;20730;-85
2022/05/10 02:10:54;;;;;;;9.67;8.70;;;18.40;51.70;;;;;;5072255;28;21212;-86
2022/05/10 02:13:26;;;;;;;9.43;8.50;;;18.40;51.70;;;;;;5091304;28;20470;-85
2022/05/10 02:15:59;;;;;;;10.73;8.03;;;17.90;52.30;;;;;;5064781;28;20655;-84
2022/05/10 02:18:35;;;;;;;8.67;7.87;;;17.40;53.50;;;;;;5074662;28;20479;-85
2022/05/10 02:21:10;;;;;;;9.70;8.77;;;17.60;53.40;;;;;;5073096;28;20484;-85
2022/05/10 02:23:43;;;;;;;9.50;8.50;;;17.80;52.80;;;;;;5095542;28;20439;-88
2022/05/10 02:26:13;;;;;;;10.90;8.43;;;17.90;52.50;;;;;;5090066;28;20926;-85
2022/05/10 02:28:53;;;;;;;10.00;9.00;;;18.00;52.30;;;;;;5073180;28;20478;-85
2022/05/10 02:31:25;;;;;;;8.43;7.63;;;18.10;52.10;;;;;;5093408;28;20452;-85
2022/05/10 02:33:53;;;;;;;8.20;7.40;;;18.10;51.70;;;;;;5090707;28;20929;-85
2022/05/10 02:36:20;;;;;;;9.33;8.40;;;18.10;51.40;;;;;;5066198;28;20450;-85
2022/05/10 02:38:48;;;;;;;9.20;8.27;;;18.10;51.50;;;;;;5060280;28;20803;-86
2022/05/10 02:41:17;;;;;;;9.07;8.13;;;18.10;51.70;;;;;;5091390;28;20533;-86
2022/05/10 02:43:49;;;;;;;8.03;7.23;;;18.10;51.90;;;;;;5093541;28;20448;-86
2022/05/10 02:46:16;;;;;;;8.60;7.50;;;18.00;52.00;;;;;;5092171;28;20439;-88
2022/05/10 02:48:46;;;;;;;8.80;7.70;;;18.00;51.90;;;;;;5080624;28;20855;-85
2022/05/10 02:51:13;;;;;;;8.90;7.97;;;18.00;52.10;;;;;;5071121;28;20518;-85
2022/05/10 02:53:40;;;;;;;10.90;8.83;;;18.00;52.20;;;;;;5074726;28;20505;-86
2022/05/10 02:56:09;;;;;;;8.57;7.67;;;18.00;52.10;;;;;;5060997;28;20504;-84
2022/05/10 02:58:41;;;;;;;12.03;8.70;;;18.00;52.20;;;;;;5077248;28;20474;-87
2022/05/10 03:01:15;;;;;;;8.33;7.50;;;17.90;52.20;;;;;;5090854;28;20460;-85
2022/05/10 03:03:43;;;;;;;9.67;8.63;;;17.90;52.20;;;;;;5075476;28;20456;-85
2022/05/10 03:06:15;;;;;;;8.90;7.40;;;17.90;52.30;;;;;;5080235;28;20492;-85
2022/05/10 03:08:42;;;;;;;10.50;8.00;;;17.90;52.20;;;;;;5056891;28;21065;-85
2022/05/10 03:11:09;;;;;;;9.47;8.47;;;17.90;52.20;;;;;;5091493;28;20452;-87
2022/05/10 03:13:36;;;;;;;8.03;7.23;;;17.90;52.10;;;;;;5073831;28;20451;-86
2022/05/10 03:16:03;;;;;;;8.33;7.30;;;17.80;52.00;;;;;;5091175;28;20656;-86
2022/05/10 03:18:30;;;;;;;8.33;7.50;;;17.80;51.70;;;;;;5088027;28;21053;-85
2022/05/10 03:20:57;;;;;;;12.00;7.93;;;17.80;51.60;;;;;;5047274;28;20451;-86
2022/05/10 03:23:27;;;;;;;10.90;8.47;;;17.80;51.60;;;;;;5062738;28;20452;-86
2022/05/10 03:25:55;;;;;;;11.03;8.80;;;17.70;51.60;;;;;;5070886;28;20472;-84
2022/05/10 03:28:21;;;;;;;10.57;8.93;;;17.60;51.80;;;;;;5063272;28;20508;-85
2022/05/10 03:30:49;;;;;;;8.90;8.00;;;17.60;51.60;;;;;;5090865;28;21015;-85
2022/05/10 03:33:16;;;;;;;9.63;8.63;;;17.60;51.80;;;;;;5053344;28;20531;-85
2022/05/10 03:35:43;;;;;;;9.30;8.00;;;17.60;51.60;;;;;;5091025;28;20464;-85
2022/05/10 03:38:10;;;;;;;12.67;8.27;;;17.60;51.40;;;;;;5074404;28;21122;-86
2022/05/10 03:40:38;;;;;;;10.63;8.40;;;17.60;51.30;;;;;;5090901;28;21116;-86
2022/05/10 03:43:08;;;;;;;11.00;8.37;;;17.60;51.30;;;;;;5072329;28;20447;-85
2022/05/10 03:45:35;;;;;;;8.50;7.50;;;17.60;51.40;;;;;;5055446;28;20471;-85
2022/05/10 03:48:02;;;;;;;9.60;7.60;;;17.60;51.40;;;;;;5070544;28;20898;-85
2022/05/10 03:50:29;;;;;;;12.47;9.07;;;17.50;51.20;;;;;;5061402;28;20480;-85
2022/05/10 03:52:56;;;;;;;9.27;8.10;;;17.50;51.20;;;;;;5087320;28;20464;-85
2022/05/10 03:55:26;;;;;;;8.97;7.50;;;17.50;51.50;;;;;;5071093;28;20810;-85
2022/05/10 03:57:54;;;;;;;10.33;8.30;;;17.20;52.40;;;;;;5091029;28;20464;-84
2022/05/10 04:00:24;;;;;;;11.00;8.73;;;17.10;52.70;;;;;;5088373;28;20548;-85
2022/05/10 04:02:51;;;;;;;9.93;8.17;;;17.20;52.80;;;;;;5080317;28;20475;-85
2022/05/10 04:05:18;;;;;;;11.30;8.73;;;17.20;52.70;;;;;;5089383;28;20470;-85
2022/05/10 04:07:46;;;;;;;13.20;8.87;;;17.30;52.70;;;;;;5090661;28;20452;-85
2022/05/10 04:10:14;;;;;;;9.90;8.43;;;17.30;52.20;;;;;;5090755;28;20478;-86
2022/05/10 04:12:42;;;;;;;9.63;8.53;;;17.30;52.10;;;;;;5090997;28;20443;-85
2022/05/10 04:15:14;;;;;;;11.07;8.20;;;17.30;52.20;;;;;;5087850;28;20806;-86
2022/05/10 04:17:42;;;;;;;11.13;8.83;;;17.40;52.40;;;;;;5073622;28;20835;-85
2022/05/10 04:20:11;;;;;;;9.20;7.90;;;17.30;52.70;;;;;;5071731;28;20503;-85
2022/05/10 04:22:38;;;;;;;10.93;7.70;;;17.30;53.00;;;;;;5089612;28;20442;-86
2022/05/10 04:25:06;;;;;;;11.17;8.60;;;17.30;53.00;;;;;;5071955;28;20525;-85
2022/05/10 04:27:33;;;;;;;10.93;8.73;;;17.40;53.00;;;;;;5071686;28;20822;-86
2022/05/10 04:30:00;;;;;;;9.80;8.80;;;17.40;53.00;;;;;;5054962;28;20553;-86
2022/05/10 04:32:28;;;;;;;9.10;8.20;;;17.40;53.00;;;;;;5067728;28;20917;-86
2022/05/10 04:34:55;;;;;;;12.43;8.53;;;17.40;52.60;;;;;;5063672;28;20448;-87
2022/05/10 04:37:22;;;;;;;12.53;9.20;;;17.40;53.00;;;;;;5039489;28;20454;-86
2022/05/10 04:42:33;;;;;;;10.80;8.20;;;17.50;52.70;;;;;;5071845;28;20543;-87
2022/05/10 04:45:00;;;;;;;10.97;8.60;;;17.50;53.00;;;;;;5088659;28;21063;-88
2022/05/10 04:47:29;;;;;;;10.20;8.70;;;17.40;53.30;;;;;;5061603;28;20450;-86
2022/05/10 04:49:55;;;;;;;10.00;9.00;;;17.40;54.20;;;;;;5071873;28;20456;-86
2022/05/10 04:52:22;;;;;;;9.10;7.90;;;17.40;53.60;;;;;;5074206;28;20458;-87
2022/05/10 04:54:49;;;;;;;10.83;9.10;;;17.50;53.40;;;;;;5070492;28;20451;-85
2022/05/10 04:57:18;;;;;;;9.33;8.30;;;17.40;53.40;;;;;;5055119;28;20430;-85
2022/05/10 04:59:45;;;;;;;9.33;8.43;;;17.50;53.50;;;;;;5074365;28;20675;-87
2022/05/10 05:02:13;;;;;;;9.27;7.90;;;17.60;53.50;;;;;;5071365;28;20456;-84
2022/05/10 05:04:41;;;;;;;22.80;10.17;;;17.50;53.70;;;;;;5040913;28;20597;-85
2022/05/10 05:07:09;;;;;;;10.40;9.30;;;17.30;54.10;;;;;;5090993;28;20475;-85
2022/05/10 05:09:36;;;;;;;12.40;8.87;;;17.30;54.20;;;;;;5093101;28;20480;-86
2022/05/10 05:12:04;;;;;;;10.00;8.40;;;17.30;54.30;;;;;;5059161;28;20972;-85
2022/05/10 05:14:32;;;;;;;9.47;7.90;;;17.30;54.60;;;;;;5071095;28;20456;-85
2022/05/10 05:16:59;;;;;;;9.03;8.07;;;17.30;54.70;;;;;;5068617;28;20443;-86
2022/05/10 05:19:26;;;;;;;9.10;8.20;;;17.50;54.60;;;;;;5072813;28;20471;-84
2022/05/10 05:21:54;;;;;;;9.10;8.20;;;17.50;54.30;;;;;;5056416;28;20484;-85
2022/05/10 05:24:21;;;;;;;11.30;9.03;;;17.50;54.60;;;;;;5088352;28;20590;-85
2022/05/10 05:26:48;;;;;;;10.20;9.10;;;17.30;54.90;;;;;;5073909;28;20474;-86
2022/05/10 05:29:15;;;;;;;11.77;9.10;;;17.30;55.20;;;;;;5080091;28;20680;-85
2022/05/10 05:31:42;;;;;;;11.33;9.30;;;17.40;55.10;;;;;;5089344;28;20435;-86
2022/05/10 05:34:09;;;;;;;10.50;8.23;;;17.50;54.80;;;;;;5088861;28;20450;-83
2022/05/10 05:36:36;;;;;;;10.50;9.13;;;17.60;54.50;;;;;;5089425;28;20448;-86
2022/05/10 05:39:04;;;;;;;11.03;8.83;;;17.60;54.90;;;;;;5086789;28;20493;-86
2022/05/10 05:41:31;;;;;;;9.77;8.47;;;17.80;54.60;;;;;;5069500;28;20827;-84
2022/05/10 05:43:58;;;;;;;11.23;8.70;;;17.90;54.40;;;;;;5056122;28;20454;-84
2022/05/10 05:46:25;;;;;;;11.30;9.17;;;17.80;54.30;;;;;;5094437;28;20536;-85
2022/05/10 05:48:52;;;;;;;10.20;9.00;;;17.90;54.50;;;;;;5072987;28;20469;-87
2022/05/10 05:51:19;;;;;;;9.47;7.93;;;18.00;54.30;;;;;;5074525;28;21021;-86
2022/05/10 05:53:46;;;;;;;13.13;10.03;;;18.10;54.40;;;;;;5072788;28;20457;-85
2022/05/10 05:56:15;;;;;;;10.57;9.37;;;18.20;54.30;;;;;;5092665;28;20450;-86
2022/05/10 05:58:42;;;;;;;10.13;9.13;;;18.20;54.20;;;;;;5077385;28;20528;-85
2022/05/10 06:01:13;;;;;;;10.60;9.50;;;18.00;54.40;;;;;;5076977;28;20495;-86
2022/05/10 06:03:42;;;;;;;9.53;8.63;;;17.80;55.00;;;;;;5075951;28;20458;-85
2022/05/10 06:06:09;;;;;;;9.63;8.63;;;17.60;55.90;;;;;;5072944;28;20566;-84
2022/05/10 06:08:36;;;;;;;11.10;9.43;;;17.40;56.40;;;;;;5072510;28;20466;-84
2022/05/10 06:11:03;;;;;;;11.77;9.33;;;17.50;56.50;;;;;;5062423;28;20462;-85
2022/05/10 06:13:31;;;;;;;11.13;9.27;;;17.60;56.20;;;;;;5091600;28;21153;-85
2022/05/10 06:15:58;;;;;;;10.70;9.60;;;17.70;56.20;;;;;;5081045;28;20454;-85
2022/05/10 06:18:25;;;;;;;10.07;8.10;;;17.70;56.40;;;;;;5091535;28;20663;-85
2022/05/10 06:20:53;;;;;;;10.50;9.40;;;17.90;55.90;;;;;;5074017;28;20451;-83
2022/05/10 06:23:19;;;;;;;16.67;9.83;;;17.60;56.20;;;;;;5073454;28;20514;-85
2022/05/10 06:25:46;;;;;;;9.37;8.43;;;17.60;56.30;;;;;;5093922;28;20525;-85
2022/05/10 06:28:14;;;;;;;11.83;9.27;;;17.70;56.50;;;;;;5074060;28;20454;-85
2022/05/10 06:30:43;;;;;;;9.43;8.30;;;18.00;56.00;;;;;;5094444;28;20467;-84
2022/05/10 06:33:11;;;;;;;13.53;8.10;;;18.10;55.50;;;;;;5055752;28;20840;-85
2022/05/10 06:35:39;;;;;;;11.90;9.00;;;18.00;55.70;;;;;;5091853;28;20450;-85
2022/05/10 06:38:24;;;;;;;11.20;9.50;;;18.00;55.90;;;;;;5047620;28;20451;-85
2022/05/10 06:40:52;;;;;;;12.00;10.17;;;18.30;55.80;;;;;;5093600;28;20454;-88
2022/05/10 06:43:19;;;;;;;12.70;9.27;;;18.30;55.20;;;;;;5075310;28;20455;-86
2022/05/10 06:45:48;;;;;;;10.27;9.20;;;18.30;55.30;;;;;;5092974;28;20496;-87
2022/05/10 06:48:15;;;;;;;16.63;9.50;;;18.40;54.90;;;;;;5074076;28;20803;-86
2022/05/10 06:50:44;;;;;;;12.33;9.83;;;18.60;55.00;;;;;;5091889;28;20983;-85
2022/05/10 06:53:12;;;;;;;9.30;8.23;;;18.90;54.60;;;;;;5093778;28;20439;-88
2022/05/10 06:55:40;;;;;;;13.30;9.20;;;18.90;54.40;;;;;;5091058;28;20535;-85
2022/05/10 06:58:08;;;;;;;13.63;9.10;;;19.00;55.00;;;;;;5074224;28;20456;-85
2022/05/10 07:00:37;;;;;;;10.53;8.97;;;19.10;54.10;;;;;;5075196;28;20595;-86
2022/05/10 07:03:09;;;;;;;10.13;9.13;;;19.40;54.00;;;;;;5094237;28;20458;-85
2022/05/10 07:05:36;;;;;;;9.80;8.60;;;19.70;53.80;;;;;;5074304;28;20478;-85
2022/05/10 07:08:04;;;;;;;9.97;7.80;;;19.80;52.60;;;;;;5091896;28;20825;-85
2022/05/10 07:10:31;;;;;;;11.03;8.93;;;19.70;52.90;;;;;;5074211;28;20492;-85
2022/05/10 07:12:58;;;;;;;10.70;8.40;;;20.00;53.20;;;;;;5073623;28;20553;-86
2022/05/10 07:15:25;;;;;;;9.60;8.33;;;20.40;52.80;;;;;;5079307;28;20466;-85
2022/05/10 07:17:55;;;;;;;15.70;7.40;;;20.40;51.40;;;;;;5089762;28;20443;-85
2022/05/10 07:20:23;;;;;;;14.13;8.07;;;20.30;52.00;;;;;;5093204;28;20476;-88
2022/05/10 07:22:51;;;;;;;10.77;8.33;;;20.20;52.00;;;;;;5074481;28;21199;-84
2022/05/10 07:25:21;;;;;;;8.97;8.03;;;20.20;52.40;;;;;;5063891;28;20634;-85
2022/05/10 07:27:48;;;;;;;9.60;7.70;;;20.00;52.70;;;;;;5091120;28;20449;-86
2022/05/10 07:30:15;;;;;;;9.37;8.47;;;20.20;52.50;;;;;;5090539;28;20490;-85
2022/05/10 07:32:43;;;;;;;9.73;8.73;;;20.30;52.50;;;;;;5082537;28;20555;-88
2022/05/10 07:35:10;;;;;;;11.50;9.20;;;20.30;53.10;;;;;;5070400;28;20951;-85
2022/05/10 07:37:39;;;;;;;9.80;8.80;;;20.20;53.50;;;;;;5090093;28;20451;-85
2022/05/10 07:40:09;;;;;;;11.17;8.57;;;20.20;53.70;;;;;;5092918;28;21113;-87
2022/05/10 07:42:36;;;;;;;10.30;9.30;;;20.30;54.20;;;;;;5090945;28;20443;-84
2022/05/10 07:45:03;;;;;;;10.90;8.70;;;20.40;53.40;;;;;;5090273;28;20561;-87
2022/05/10 07:47:30;;;;;;;9.60;8.60;;;20.80;53.20;;;;;;5070972;28;20459;-85
2022/05/10 07:49:58;;;;;;;10.13;9.13;;;21.10;52.60;;;;;;5090501;28;20559;-87
2022/05/10 07:52:25;;;;;;;15.93;8.17;;;21.10;52.40;;;;;;5076204;28;20443;-86
2022/05/10 07:54:53;;;;;;;9.03;8.23;;;21.20;52.90;;;;;;5073306;28;20465;-85
2022/05/10 07:57:20;;;;;;;9.50;8.47;;;21.20;52.30;;;;;;5093891;28;20450;-85
2022/05/10 07:59:47;;;;;;;11.00;8.60;;;21.30;52.40;;;;;;5074392;28;20463;-85
2022/05/10 08:02:14;;;;;;;8.73;7.83;;;21.30;52.50;;;;;;5090454;28;20469;-86
2022/05/10 08:04:41;;;;;;;13.50;8.03;;;21.50;52.30;;;;;;5089916;28;21005;-85
2022/05/10 08:07:07;;;;;;;17.80;9.30;;;21.70;52.10;;;;;;5072413;28;20519;-87
2022/05/10 08:09:34;;;;;;;8.80;7.83;;;21.80;51.60;;;;;;5058359;28;20467;-85
2022/05/10 08:12:03;;;;;;;10.23;9.17;;;21.80;51.50;;;;;;5054368;28;20450;-86
2022/05/10 08:14:30;;;;;;;9.07;7.90;;;22.00;51.50;;;;;;5054386;28;20878;-85
2022/05/10 08:17:00;;;;;;;10.20;9.03;;;22.40;51.20;;;;;;5091984;28;20452;-85
2022/05/10 08:19:27;;;;;;;14.00;9.00;;;22.40;51.00;;;;;;5042961;28;20536;-85
2022/05/10 08:21:56;;;;;;;9.67;8.50;;;22.50;50.70;;;;;;5092696;28;20987;-86
2022/05/10 08:24:23;;;;;;;10.97;8.53;;;22.50;51.20;;;;;;5045780;28;20443;-85
2022/05/10 08:26:50;;;;;;;8.70;7.90;;;22.70;50.50;;;;;;5076096;28;20839;-85
2022/05/10 08:29:19;;;;;;;9.30;8.40;;;23.00;50.60;;;;;;5072376;28;20474;-85
2022/05/10 08:31:46;;;;;;;19.53;8.20;;;23.30;50.50;;;;;;5073652;28;20458;-84
2022/05/10 08:34:13;;;;;;;12.33;9.23;;;23.30;50.60;;;;;;5089207;28;21233;-85
2022/05/10 08:36:41;;;;;;;13.33;7.70;;;23.30;50.70;;;;;;5091204;28;20457;-85
2022/05/10 08:39:08;;;;;;;10.40;8.43;;;23.40;50.80;;;;;;5089149;28;21046;-85
2022/05/10 08:41:43;;;;;;;10.90;9.30;;;23.60;51.00;;;;;;5088204;28;20448;-85
2022/05/10 08:44:15;;;;;;;9.40;8.50;;;23.70;50.60;;;;;;5073648;28;20568;-87
2022/05/10 08:46:46;;;;;;;9.27;7.97;;;23.80;50.60;;;;;;5063660;28;20566;-85
2022/05/10 08:49:18;;;;;;;17.10;9.00;;;23.80;50.60;;;;;;5057977;28;20553;-85
2022/05/10 08:51:46;;;;;;;10.03;7.97;;;23.90;50.50;;;;;;5091544;28;21238;-85
2022/05/10 08:54:13;;;;;;;9.60;8.33;;;23.90;50.90;;;;;;5090351;28;20450;-85
2022/05/10 08:56:44;;;;;;;8.97;7.93;;;24.00;50.80;;;;;;5076201;28;20840;-85
2022/05/10 08:59:20;;;;;;;10.63;9.03;;;24.20;50.00;;;;;;5088133;28;20988;-87
2022/05/10 09:01:57;;;;;;;10.07;9.07;;;24.40;50.20;;;;;;5081726;28;20446;-85
2022/05/10 09:04:41;;;;;;;9.13;8.23;;;24.70;49.80;;;;;;5074353;28;20471;-85
2022/05/10 09:07:17;;;;;;;11.80;8.17;;;24.80;49.40;;;;;;5073114;28;20471;-85
2022/05/10 09:09:55;;;;;;;9.50;8.50;;;25.00;49.50;;;;;;5069176;28;20498;-85
2022/05/10 09:12:24;;;;;;;9.17;8.37;;;25.10;48.70;;;;;;5087723;28;20447;-85
2022/05/10 09:14:56;;;;;;;8.90;7.57;;;25.30;48.80;;;;;;5072659;28;20435;-85
2022/05/10 09:17:29;;;;;;;10.17;9.13;;;25.40;48.60;;;;;;5093777;28;20444;-86
2022/05/10 09:19:56;;;;;;;11.73;8.20;;;25.60;48.20;;;;;;5082532;28;21072;-85
2022/05/10 09:22:39;;;;;;;9.70;7.97;;;25.70;48.10;;;;;;5079073;28;20456;-86
2022/05/10 09:25:18;;;;;;;11.83;8.57;;;25.80;48.40;;;;;;5091820;28;20478;-84
2022/05/10 09:27:45;;;;;;;10.57;8.70;;;25.90;48.30;;;;;;5075607;28;20450;-85
2022/05/10 09:30:25;;;;;;;8.50;7.50;;;26.00;48.60;;;;;;5092007;28;20466;-83
2022/05/10 09:36:00;;;;;;;8.03;7.23;;;26.50;48.00;;;;;;5092463;28;20460;-88
2022/05/10 09:38:28;;;;;;;8.20;7.40;;;26.60;46.70;;;;;;5073933;28;20462;-88
2022/05/10 09:40:54;;;;;;;8.93;8.00;;;26.80;46.60;;;;;;5066411;28;20463;-84
2022/05/10 09:43:26;;;;;;;9.60;8.20;;;26.80;46.10;;;;;;5094408;28;20951;-87
2022/05/10 09:46:11;;;;;;;10.33;7.83;;;26.90;46.60;;;;;;5092637;28;20452;-85
2022/05/10 09:48:39;;;;;;;13.03;8.23;;;27.10;46.20;;;;;;5090964;28;20935;-84
2022/05/10 09:51:34;;;;;;;11.83;8.27;;;27.10;45.30;;;;;;5092336;28;20455;-85
2022/05/10 09:54:04;;;;;;;9.70;8.40;;;27.30;46.20;;;;;;5092083;28;20443;-85
2022/05/10 09:56:36;;;;;;;8.10;7.40;;;27.50;44.30;;;;;;5081976;28;20437;-85
2022/05/10 09:59:06;;;;;;;8.63;7.43;;;27.50;43.40;;;;;;5075000;28;20463;-86
2022/05/10 10:01:39;;;;;;;7.60;7.00;;;27.50;44.20;;;;;;5066585;28;20453;-85
2022/05/10 10:04:20;;;;;;;8.43;7.63;;;27.40;42.40;;;;;;5079627;28;20439;-85
2022/05/10 10:07:05;;;;;;;7.47;6.87;;;27.90;43.20;;;;;;5061360;28;20913;-85
2022/05/10 10:09:33;;;;;;;8.80;8.00;;;28.30;41.30;;;;;;5093091;28;20468;-87
2022/05/10 10:12:01;;;;;;;8.33;7.43;;;28.70;40.50;;;;;;5075717;28;20904;-86
2022/05/10 10:14:39;;;;;;;7.17;6.47;;;29.00;40.30;;;;;;5088173;28;20837;-86
2022/05/10 10:17:08;;;;;;;7.43;6.27;;;29.20;38.00;;;;;;5072620;28;20967;-86
2022/05/10 10:19:41;;;;;;;7.47;6.87;;;29.40;37.00;;;;;;5075285;28;20578;-87
2022/05/10 10:22:14;;;;;;;7.30;6.67;;;29.50;36.40;;;;;;5090858;28;20443;-88
2022/05/10 10:24:47;;;;;;;8.60;7.47;;;29.70;37.30;;;;;;5090739;28;20461;-84
2022/05/10 10:27:19;;;;;;;6.90;6.27;;;29.50;35.20;;;;;;5091589;28;20493;-87
2022/05/10 10:29:50;;;;;;;6.80;6.30;;;29.30;37.50;;;;;;5073727;28;20455;-85
2022/05/10 10:32:21;;;;;;;8.77;6.37;;;28.80;37.40;;;;;;5064355;28;21000;-86
2022/05/10 10:34:53;;;;;;;7.83;7.00;;;28.60;36.60;;;;;;5093688;28;20940;-86
2022/05/10 10:37:26;;;;;;;7.00;6.40;;;28.60;37.70;;;;;;5073012;28;20450;-86
2022/05/10 10:40:04;;;;;;;7.73;6.93;;;28.60;37.70;;;;;;5092610;28;20471;-84
2022/05/10 10:42:37;;;;;;;6.97;6.43;;;28.60;37.60;;;;;;5093302;28;20444;-86
2022/05/10 10:45:08;;;;;;;6.30;5.80;;;28.90;37.80;;;;;;5090462;28;20953;-86
2022/05/10 10:47:41;;;;;;;7.23;6.63;;;29.10;36.40;;;;;;5094351;28;20463;-86
2022/05/10 10:50:22;;;;;;;6.87;6.30;;;28.70;35.40;;;;;;5071713;28;20464;-85
2022/05/10 10:52:52;;;;;;;6.50;5.97;;;28.80;37.80;;;;;;5074380;28;20534;-85
2022/05/10 10:55:21;;;;;;;6.17;5.63;;;28.80;35.50;;;;;;5091635;28;20553;-85
2022/05/10 10:57:58;;;;;;;6.77;6.07;;;28.80;34.50;;;;;;5093789;28;21138;-86
2022/05/10 11:00:31;;;;;;;9.80;5.73;;;29.00;33.80;;;;;;5089318;28;20463;-85
2022/05/10 11:03:08;;;;;;;9.67;5.77;;;29.30;34.20;;;;;;5073817;28;20819;-86
2022/05/10 11:05:57;;;;;;;6.20;5.80;;;29.20;35.20;;;;;;5090344;28;20455;-85
2022/05/10 11:08:38;;;;;;;5.87;5.47;;;29.60;36.00;;;;;;5089342;28;20455;-86
2022/05/10 11:11:12;;;;;;;6.10;5.33;;;29.80;34.80;;;;;;5081239;28;20974;-85
2022/05/10 11:13:51;;;;;;;6.37;5.77;;;30.20;35.30;;;;;;5091143;28;20447;-85
2022/05/10 11:16:34;;;;;;;9.13;5.83;;;30.50;35.20;;;;;;5091709;28;20456;-87
2022/05/10 11:19:31;;;;;;;5.83;5.37;;;30.70;33.40;;;;;;5090289;28;20474;-86
2022/05/10 11:22:04;;;;;;;6.07;5.47;;;30.80;33.80;;;;;;5089907;28;20435;-88
2022/05/10 11:24:44;;;;;;;5.07;4.67;;;30.20;31.40;;;;;;5070052;28;20455;-87
2022/05/10 11:27:27;;;;;;;5.80;5.30;;;29.40;30.90;;;;;;5090566;28;20471;-87
2022/05/10 11:30:04;;;;;;;5.40;4.97;;;28.60;34.60;;;;;;5090340;28;20466;-87
2022/05/10 11:32:54;;;;;;;6.30;5.20;;;28.60;32.10;;;;;;5074278;28;20997;-85
2022/05/10 11:35:42;;;;;;;5.03;4.63;;;28.70;34.40;;;;;;5091403;28;20459;-84
2022/05/10 11:38:14;;;;;;;5.20;4.80;;;29.20;34.20;;;;;;5090989;28;20876;-87
2022/05/10 11:41:01;;;;;;;5.57;5.13;;;29.60;33.30;;;;;;5074628;28;20470;-86
2022/05/10 11:43:52;;;;;;;5.90;5.27;;;29.80;33.00;;;;;;5075824;28;20455;-86
2022/05/10 11:46:41;;;;;;;6.43;5.07;;;29.80;32.70;;;;;;5057626;28;20455;-86
2022/05/10 11:49:29;;;;;;;6.03;5.40;;;29.80;32.70;;;;;;5072990;28;20869;-85
2022/05/10 11:52:32;;;;;;;5.20;4.80;;;29.70;32.10;;;;;;5071217;28;20458;-88
2022/05/10 11:55:24;;;;;;;5.90;5.37;;;29.60;32.40;;;;;;5041978;28;21044;-86
2022/05/10 11:57:56;;;;;;;5.80;5.20;;;29.70;33.60;;;;;;5069961;28;20478;-86
2022/05/10 12:00:53;;;;;;;6.33;5.10;;;29.80;32.40;;;;;;5064539;28;20591;-87
2022/05/10 12:03:55;;;;;;;5.27;4.87;;;29.80;33.00;;;;;;5055684;28;20458;-86
2022/05/10 12:06:47;;;;;;;4.93;4.43;;;30.10;30.90;;;;;;5072544;28;20447;-87
2022/05/10 12:09:57;;;;;;;5.87;5.37;;;30.20;30.10;;;;;;5058438;28;20525;-84
2022/05/10 12:13:01;;;;;;;5.60;5.00;;;30.40;32.10;;;;;;5088485;28;20436;-87
2022/05/10 12:21:53;;;;;;;6.13;5.17;;;30.80;31.30;;;;;;5092256;28;20446;-85
2022/05/10 12:24:32;;;;;;;4.87;4.47;;;30.40;30.80;;;;;;5072733;28;20476;-86
2022/05/10 12:27:00;;;;;;;5.13;4.73;;;30.30;31.50;;;;;;5061708;28;21039;-87
2022/05/10 12:30:05;;;;;;;5.17;4.73;;;30.00;32.20;;;;;;5091265;28;21287;-86
2022/05/10 12:32:47;;;;;;;5.83;5.40;;;30.10;31.60;;;;;;5074197;28;20450;-86
2022/05/10 12:35:21;;;;;;;4.97;4.57;;;30.10;32.10;;;;;;5078374;28;20439;-87
2022/05/10 12:37:56;;;;;;;5.43;5.03;;;30.10;31.90;;;;;;5057957;28;20435;-87
2022/05/10 12:40:44;;;;;;;4.90;4.50;;;30.10;31.70;;;;;;5090781;28;20473;-86
2022/05/10 12:43:40;;;;;;;5.73;5.30;;;30.00;30.90;;;;;;5090728;28;20431;-86
2022/05/10 12:46:22;;;;;;;5.53;4.60;;;29.80;32.70;;;;;;5070832;28;20480;-86
2022/05/10 12:49:03;;;;;;;5.83;5.23;;;29.90;33.60;;;;;;5070447;28;20482;-85
2022/05/10 12:51:39;;;;;;;5.43;5.03;;;29.70;33.40;;;;;;5073499;28;20886;-88
2022/05/10 12:54:14;;;;;;;5.03;4.63;;;29.60;31.80;;;;;;5082963;28;20985;-85
2022/05/10 12:57:03;;;;;;;5.10;4.70;;;29.50;31.30;;;;;;5077728;28;20476;-85
2022/05/10 12:59:36;;;;;;;5.70;5.07;;;29.60;31.90;;;;;;5075515;28;20470;-87
2022/05/10 13:02:09;;;;;;;5.30;4.90;;;29.30;31.10;;;;;;5074819;28;20443;-87
2022/05/10 13:04:41;;;;;;;6.77;4.97;;;29.30;32.80;;;;;;5077700;28;20449;-88
2022/05/10 13:07:15;;;;;;;5.23;4.77;;;29.20;31.60;;;;;;5095729;28;21127;-85
2022/05/10 13:09:44;;;;;;;5.37;4.87;;;29.20;33.20;;;;;;5063486;28;21282;-86
2022/05/10 13:12:16;;;;;;;5.67;5.27;;;29.10;32.50;;;;;;5093982;28;20460;-86
2022/05/10 13:14:46;;;;;;;5.60;5.20;;;29.30;32.60;;;;;;5095795;28;20462;-85
2022/05/10 13:17:22;;;;;;;6.13;5.30;;;29.40;32.20;;;;;;5095202;28;20446;-86
2022/05/10 13:19:50;;;;;;;5.27;4.83;;;29.50;32.80;;;;;;5077561;28;20833;-86
2022/05/10 13:22:19;;;;;;;5.70;5.20;;;29.80;33.80;;;;;;5073830;28;21497;-86